sensor_id;sensor_type;location;lat;lon;timestamp;P1;durP1;ratioP1;P2;durP2;ratioP2
54511;SDS011;40419;47.438;19.026;2023-10-13T00:00:32;16.77;;;8.27;;
54511;SDS011;40419;47.438;19.026;2023-10-13T00:03:06;13.63;;;8.27;;
54511;SDS011;40419;47.438;19.026;2023-10-13T00:05:34;15.57;;;7.55;;
54511;SDS011;40419;47.438;19.026;2023-10-13T00:08:03;20.05;;;9.98;;
54511;SDS011;40419;47.438;19.026;2023-10-13T00:10:31;16.85;;;8.80;;
54511;SDS011;40419;47.438;19.026;2023-10-13T00:12:58;25.48;;;9.27;;
54511;SDS011;40419;47.438;19.026;2023-10-13T00:15:40;16.17;;;7.85;;
54511;SDS011;40419;47.438;19.026;2023-10-13T00:18:29;12.95;;;7.28;;
54511;SDS011;40419;47.438;19.026;2023-10-13T00:21:01;11.55;;;6.93;;
54511;SDS011;40419;47.438;19.026;2023-10-13T00:23:45;13.70;;;8.10;;
54511;SDS011;40419;47.438;19.026;2023-10-13T00:26:21;22.02;;;8.02;;
54511;SDS011;40419;47.438;19.026;2023-10-13T00:28:54;14.32;;;7.82;;
54511;SDS011;40419;47.438;19.026;2023-10-13T00:31:32;18.42;;;7.28;;
54511;SDS011;40419;47.438;19.026;2023-10-13T00:34:01;16.60;;;7.97;;
54511;SDS011;40419;47.438;19.026;2023-10-13T00:36:38;13.73;;;8.35;;
54511;SDS011;40419;47.438;19.026;2023-10-13T00:39:13;12.38;;;7.63;;
54511;SDS011;40419;47.438;19.026;2023-10-13T00:41:44;11.98;;;7.00;;
54511;SDS011;40419;47.438;19.026;2023-10-13T00:44:25;10.68;;;6.95;;
54511;SDS011;40419;47.438;19.026;2023-10-13T00:47:05;15.23;;;7.38;;
54511;SDS011;40419;47.438;19.026;2023-10-13T00:49:37;16.65;;;8.40;;
54511;SDS011;40419;47.438;19.026;2023-10-13T00:52:07;19.10;;;9.05;;
54511;SDS011;40419;47.438;19.026;2023-10-13T00:54:35;13.32;;;7.47;;
54511;SDS011;40419;47.438;19.026;2023-10-13T00:57:06;17.47;;;7.83;;
54511;SDS011;40419;47.438;19.026;2023-10-13T00:59:51;13.63;;;7.93;;
54511;SDS011;40419;47.438;19.026;2023-10-13T01:02:19;13.70;;;7.75;;
54511;SDS011;40419;47.438;19.026;2023-10-13T01:05:08;15.77;;;6.90;;
54511;SDS011;40419;47.438;19.026;2023-10-13T01:07:45;11.98;;;6.18;;
54511;SDS011;40419;47.438;19.026;2023-10-13T01:10:18;12.07;;;6.57;;
54511;SDS011;40419;47.438;19.026;2023-10-13T01:12:54;12.25;;;6.35;;
54511;SDS011;40419;47.438;19.026;2023-10-13T01:15:24;9.07;;;5.47;;
54511;SDS011;40419;47.438;19.026;2023-10-13T01:18:09;11.88;;;5.35;;
54511;SDS011;40419;47.438;19.026;2023-10-13T01:20:39;11.63;;;5.75;;
54511;SDS011;40419;47.438;19.026;2023-10-13T01:23:11;17.27;;;7.00;;
54511;SDS011;40419;47.438;19.026;2023-10-13T01:25:49;11.95;;;6.30;;
54511;SDS011;40419;47.438;19.026;2023-10-13T01:28:19;11.20;;;6.10;;
54511;SDS011;40419;47.438;19.026;2023-10-13T01:30:47;11.52;;;6.22;;
54511;SDS011;40419;47.438;19.026;2023-10-13T01:33:20;17.63;;;6.97;;
54511;SDS011;40419;47.438;19.026;2023-10-13T01:35:53;12.35;;;7.07;;
54511;SDS011;40419;47.438;19.026;2023-10-13T01:38:20;11.88;;;6.55;;
54511;SDS011;40419;47.438;19.026;2023-10-13T01:40:46;13.75;;;7.32;;
54511;SDS011;40419;47.438;19.026;2023-10-13T01:43:18;12.73;;;6.90;;
54511;SDS011;40419;47.438;19.026;2023-10-13T01:45:44;16.55;;;7.70;;
54511;SDS011;40419;47.438;19.026;2023-10-13T01:48:18;14.02;;;7.90;;
54511;SDS011;40419;47.438;19.026;2023-10-13T01:50:47;14.50;;;7.05;;
54511;SDS011;40419;47.438;19.026;2023-10-13T01:53:20;17.27;;;7.45;;
54511;SDS011;40419;47.438;19.026;2023-10-13T01:55:48;13.60;;;7.63;;
54511;SDS011;40419;47.438;19.026;2023-10-13T01:58:18;16.85;;;7.32;;
54511;SDS011;40419;47.438;19.026;2023-10-13T02:00:48;10.30;;;7.35;;
54511;SDS011;40419;47.438;19.026;2023-10-13T02:03:14;12.60;;;7.40;;
54511;SDS011;40419;47.438;19.026;2023-10-13T02:05:43;16.33;;;7.22;;
54511;SDS011;40419;47.438;19.026;2023-10-13T02:08:16;11.68;;;6.00;;
54511;SDS011;40419;47.438;19.026;2023-10-13T02:10:55;19.75;;;6.85;;
54511;SDS011;40419;47.438;19.026;2023-10-13T02:13:24;17.00;;;6.85;;
54511;SDS011;40419;47.438;19.026;2023-10-13T02:15:56;11.65;;;6.53;;
54511;SDS011;40419;47.438;19.026;2023-10-13T02:18:31;12.30;;;6.55;;
54511;SDS011;40419;47.438;19.026;2023-10-13T02:21:11;11.55;;;6.57;;
54511;SDS011;40419;47.438;19.026;2023-10-13T02:23:40;11.73;;;5.85;;
54511;SDS011;40419;47.438;19.026;2023-10-13T02:26:28;10.18;;;5.13;;
54511;SDS011;40419;47.438;19.026;2023-10-13T02:28:59;11.98;;;5.97;;
54511;SDS011;40419;47.438;19.026;2023-10-13T02:31:36;11.52;;;6.25;;
54511;SDS011;40419;47.438;19.026;2023-10-13T02:34:03;10.48;;;7.00;;
54511;SDS011;40419;47.438;19.026;2023-10-13T02:36:38;10.32;;;5.00;;
54511;SDS011;40419;47.438;19.026;2023-10-13T02:39:19;13.48;;;5.70;;
54511;SDS011;40419;47.438;19.026;2023-10-13T02:41:56;8.00;;;5.45;;
54511;SDS011;40419;47.438;19.026;2023-10-13T02:44:26;10.85;;;5.18;;
54511;SDS011;40419;47.438;19.026;2023-10-13T02:46:58;17.15;;;6.40;;
54511;SDS011;40419;47.438;19.026;2023-10-13T02:49:27;8.60;;;5.63;;
54511;SDS011;40419;47.438;19.026;2023-10-13T02:51:59;12.60;;;6.38;;
54511;SDS011;40419;47.438;19.026;2023-10-13T02:54:30;10.60;;;5.57;;
54511;SDS011;40419;47.438;19.026;2023-10-13T02:56:56;12.65;;;5.45;;
54511;SDS011;40419;47.438;19.026;2023-10-13T02:59:23;13.45;;;5.07;;
54511;SDS011;40419;47.438;19.026;2023-10-13T03:02:04;9.80;;;5.57;;
54511;SDS011;40419;47.438;19.026;2023-10-13T03:04:44;9.85;;;5.28;;
54511;SDS011;40419;47.438;19.026;2023-10-13T03:07:10;6.28;;;3.97;;
54511;SDS011;40419;47.438;19.026;2023-10-13T03:09:35;7.93;;;4.53;;
54511;SDS011;40419;47.438;19.026;2023-10-13T03:12:02;13.82;;;4.28;;
54511;SDS011;40419;47.438;19.026;2023-10-13T03:14:31;7.13;;;4.47;;
54511;SDS011;40419;47.438;19.026;2023-10-13T03:17:00;11.10;;;5.30;;
54511;SDS011;40419;47.438;19.026;2023-10-13T03:19:28;10.02;;;5.03;;
54511;SDS011;40419;47.438;19.026;2023-10-13T03:22:08;10.95;;;5.15;;
54511;SDS011;40419;47.438;19.026;2023-10-13T03:24:44;7.30;;;4.20;;
54511;SDS011;40419;47.438;19.026;2023-10-13T03:27:15;13.90;;;6.18;;
54511;SDS011;40419;47.438;19.026;2023-10-13T03:29:48;11.00;;;5.40;;
54511;SDS011;40419;47.438;19.026;2023-10-13T03:32:19;13.75;;;6.88;;
54511;SDS011;40419;47.438;19.026;2023-10-13T03:34:46;8.63;;;5.30;;
54511;SDS011;40419;47.438;19.026;2023-10-13T03:37:38;11.50;;;6.28;;
54511;SDS011;40419;47.438;19.026;2023-10-13T03:40:05;11.52;;;6.00;;
54511;SDS011;40419;47.438;19.026;2023-10-13T03:42:32;21.40;;;7.13;;
54511;SDS011;40419;47.438;19.026;2023-10-13T03:44:58;14.05;;;7.18;;
54511;SDS011;40419;47.438;19.026;2023-10-13T03:47:25;11.00;;;6.55;;
54511;SDS011;40419;47.438;19.026;2023-10-13T03:49:59;11.80;;;7.00;;
54511;SDS011;40419;47.438;19.026;2023-10-13T03:52:56;10.40;;;7.05;;
54511;SDS011;40419;47.438;19.026;2023-10-13T03:55:25;12.65;;;5.78;;
54511;SDS011;40419;47.438;19.026;2023-10-13T03:58:01;11.68;;;6.22;;
54511;SDS011;40419;47.438;19.026;2023-10-13T04:00:31;20.10;;;6.07;;
54511;SDS011;40419;47.438;19.026;2023-10-13T04:03:00;14.02;;;8.00;;
54511;SDS011;40419;47.438;19.026;2023-10-13T04:05:28;13.98;;;7.05;;
54511;SDS011;40419;47.438;19.026;2023-10-13T04:08:05;17.85;;;8.45;;
54511;SDS011;40419;47.438;19.026;2023-10-13T04:10:51;17.10;;;9.00;;
54511;SDS011;40419;47.438;19.026;2023-10-13T04:13:17;20.45;;;7.00;;
54511;SDS011;40419;47.438;19.026;2023-10-13T04:16:04;11.43;;;5.80;;
54511;SDS011;40419;47.438;19.026;2023-10-13T04:18:53;12.55;;;7.35;;
54511;SDS011;40419;47.438;19.026;2023-10-13T04:21:21;17.33;;;8.88;;
54511;SDS011;40419;47.438;19.026;2023-10-13T04:24:10;13.43;;;7.60;;
54511;SDS011;40419;47.438;19.026;2023-10-13T04:26:47;14.82;;;7.15;;
54511;SDS011;40419;47.438;19.026;2023-10-13T04:29:34;14.15;;;7.75;;
54511;SDS011;40419;47.438;19.026;2023-10-13T04:32:21;11.13;;;6.40;;
54511;SDS011;40419;47.438;19.026;2023-10-13T04:35:05;20.48;;;7.82;;
54511;SDS011;40419;47.438;19.026;2023-10-13T04:37:40;13.48;;;7.75;;
54511;SDS011;40419;47.438;19.026;2023-10-13T04:40:26;15.52;;;7.90;;
54511;SDS011;40419;47.438;19.026;2023-10-13T04:43:00;15.68;;;6.20;;
54511;SDS011;40419;47.438;19.026;2023-10-13T04:45:46;15.50;;;6.78;;
54511;SDS011;40419;47.438;19.026;2023-10-13T04:48:26;13.40;;;7.65;;
54511;SDS011;40419;47.438;19.026;2023-10-13T04:50:52;17.17;;;8.30;;
54511;SDS011;40419;47.438;19.026;2023-10-13T04:53:26;17.85;;;9.23;;
54511;SDS011;40419;47.438;19.026;2023-10-13T04:55:55;15.35;;;8.68;;
54511;SDS011;40419;47.438;19.026;2023-10-13T04:58:30;14.90;;;8.35;;
54511;SDS011;40419;47.438;19.026;2023-10-13T05:01:04;24.73;;;8.50;;
54511;SDS011;40419;47.438;19.026;2023-10-13T05:04:02;11.43;;;8.25;;
54511;SDS011;40419;47.438;19.026;2023-10-13T05:06:37;16.95;;;8.48;;
54511;SDS011;40419;47.438;19.026;2023-10-13T05:09:12;15.57;;;8.45;;
54511;SDS011;40419;47.438;19.026;2023-10-13T05:11:56;18.92;;;9.13;;
54511;SDS011;40419;47.438;19.026;2023-10-13T05:14:43;14.60;;;8.10;;
54511;SDS011;40419;47.438;19.026;2023-10-13T05:17:30;18.58;;;6.93;;
54511;SDS011;40419;47.438;19.026;2023-10-13T05:20:16;14.88;;;7.68;;
54511;SDS011;40419;47.438;19.026;2023-10-13T05:23:00;12.15;;;7.72;;
54511;SDS011;40419;47.438;19.026;2023-10-13T05:25:44;15.40;;;7.93;;
54511;SDS011;40419;47.438;19.026;2023-10-13T05:28:33;11.88;;;7.57;;
54511;SDS011;40419;47.438;19.026;2023-10-13T05:31:17;18.52;;;8.18;;
54511;SDS011;40419;47.438;19.026;2023-10-13T05:34:01;10.30;;;6.70;;
54511;SDS011;40419;47.438;19.026;2023-10-13T05:36:47;20.67;;;8.30;;
54511;SDS011;40419;47.438;19.026;2023-10-13T05:39:31;15.50;;;7.18;;
54511;SDS011;40419;47.438;19.026;2023-10-13T05:42:15;17.90;;;7.97;;
54511;SDS011;40419;47.438;19.026;2023-10-13T05:45:01;14.85;;;8.00;;
54511;SDS011;40419;47.438;19.026;2023-10-13T05:47:44;13.75;;;8.05;;
54511;SDS011;40419;47.438;19.026;2023-10-13T05:50:10;12.70;;;7.45;;
54511;SDS011;40419;47.438;19.026;2023-10-13T05:52:48;10.35;;;6.68;;
54511;SDS011;40419;47.438;19.026;2023-10-13T05:55:31;22.70;;;8.65;;
54511;SDS011;40419;47.438;19.026;2023-10-13T05:58:18;17.15;;;7.68;;
54511;SDS011;40419;47.438;19.026;2023-10-13T06:01:01;14.23;;;7.82;;
54511;SDS011;40419;47.438;19.026;2023-10-13T06:03:45;17.70;;;7.60;;
54511;SDS011;40419;47.438;19.026;2023-10-13T06:06:32;14.75;;;7.93;;
54511;SDS011;40419;47.438;19.026;2023-10-13T06:09:16;13.48;;;7.13;;
54511;SDS011;40419;47.438;19.026;2023-10-13T06:12:03;14.77;;;6.63;;
54511;SDS011;40419;47.438;19.026;2023-10-13T06:14:49;18.80;;;7.13;;
54511;SDS011;40419;47.438;19.026;2023-10-13T06:17:35;12.45;;;6.90;;
54511;SDS011;40419;47.438;19.026;2023-10-13T06:20:19;11.80;;;6.15;;
54511;SDS011;40419;47.438;19.026;2023-10-13T06:23:06;9.73;;;6.60;;
54511;SDS011;40419;47.438;19.026;2023-10-13T06:25:50;15.35;;;6.85;;
54511;SDS011;40419;47.438;19.026;2023-10-13T06:28:39;8.38;;;5.93;;
54511;SDS011;40419;47.438;19.026;2023-10-13T06:31:11;15.18;;;5.78;;
